Time;durP1;ratioP1;P1;durP2;ratioP2;P2;SDS_P1;SDS_P2;PMS_P1;PMS_P2;Temp;Humidity;BMP_temperature;BMP_pressure;BME280_temperature;BME280_humidity;BME280_pressure;Samples;Min_cycle;Max_cycle;Signal;HPM_P1;HPM_P2
2022/12/15 00:40:57;;;;;;;11.90;2.60;;;15.70;46.40;;;;;;5009167;28;20559;-58
2022/12/15 00:43:25;;;;;;;11.95;2.90;;;15.50;47.50;;;;;;5009280;28;20113;-57
2022/12/15 00:48:37;;;;;;;13.45;3.35;;;15.20;48.10;;;;;;5008695;28;20098;-58
2022/12/15 00:51:03;;;;;;;15.55;3.28;;;15.10;48.50;;;;;;5010277;28;20077;-57
2022/12/15 01:21:03;;;;;;;38.05;6.72;;;13.90;55.00;;;;;;5009560;28;20086;-62
2022/12/15 01:23:31;;;;;;;44.63;6.88;;;13.80;55.20;;;;;;5009843;28;20678;-58
2022/12/15 01:25:57;;;;;;;45.55;7.45;;;13.70;55.40;;;;;;5009682;28;20074;-57
2022/12/15 01:28:24;;;;;;;38.63;6.90;;;13.70;55.90;;;;;;5014965;28;20086;-60
2022/12/15 01:30:51;;;;;;;42.10;7.07;;;13.60;55.60;;;;;;5013183;28;20071;-59
2022/12/15 01:33:17;;;;;;;;;;;13.60;56.00;;;;;;5013814;28;20074;-58
2022/12/15 01:35:44;;;;;;;26.73;6.88;;;13.40;56.20;;;;;;5009956;28;20386;-58
2022/12/15 01:38:10;;;;;;;;;;;13.40;56.80;;;;;;5012998;28;20114;-60
2022/12/15 01:40:45;;;;;;;30.08;7.68;;;13.40;57.20;;;;;;5013063;28;19958;-58
2022/12/15 01:43:24;;;;;;;37.38;7.65;;;13.20;57.70;;;;;;5012710;28;20092;-57
2022/12/15 01:45:55;;;;;;;36.40;8.10;;;13.10;58.30;;;;;;5010764;28;20066;-56
2022/12/15 01:48:37;;;;;;;49.05;9.27;;;13.10;58.50;;;;;;5013025;28;20078;-63
2022/12/15 01:51:12;;;;;;;53.13;8.93;;;13.10;58.70;;;;;;5011861;28;20070;-57
2022/12/15 01:53:54;;;;;;;48.83;8.40;;;13.00;58.70;;;;;;5012927;28;20578;-59
2022/12/15 01:56:23;;;;;;;50.85;8.40;;;12.90;58.80;;;;;;5015945;28;20098;-57
2022/12/15 01:58:55;;;;;;;48.92;10.80;;;12.80;59.40;;;;;;5017348;28;20070;-60
2022/12/15 02:01:21;;;;;;;46.95;9.25;;;12.80;59.70;;;;;;5016040;28;20074;-57
2022/12/15 02:03:48;;;;;;;47.33;9.13;;;12.70;60.00;;;;;;5016738;28;20093;-59
2022/12/15 02:06:14;;;;;;;;;;;12.70;60.60;;;;;;5018767;28;20152;-61
2022/12/15 02:08:45;;;;;;;52.95;10.48;;;12.60;60.70;;;;;;5016668;28;19981;-61
2022/12/15 02:11:46;;;;;;;59.72;8.77;;;12.60;60.90;;;;;;5015558;28;20102;-56
2022/12/15 02:14:27;;;;;;;55.35;9.43;;;12.50;60.80;;;;;;5013805;28;20165;-61
2022/12/15 02:17:05;;;;;;;50.90;8.88;;;12.60;61.30;;;;;;5012104;28;20469;-60
2022/12/15 02:19:35;;;;;;;43.10;9.38;;;12.50;61.40;;;;;;5012223;28;20117;-62
2022/12/15 02:22:01;;;;;;;54.03;9.82;;;12.50;61.70;;;;;;5011960;28;20090;-54
2022/12/15 02:24:54;;;;;;;36.58;9.07;;;12.30;62.10;;;;;;5012550;28;20545;-62
2022/12/15 02:27:58;;;;;;;55.40;10.77;;;12.30;62.70;;;;;;5013104;28;20161;-57
2022/12/15 02:31:48;;;;;;;54.90;9.77;;;12.30;62.20;;;;;;5011108;28;20096;-57
2022/12/15 02:33:34;;;;;;;47.90;9.82;;;12.20;62.20;;;;;;5011703;28;20074;-58
2022/12/15 02:36:14;;;;;;;50.60;10.30;;;12.20;63.20;;;;;;5011249;28;20500;-60
2022/12/15 02:38:41;;;;;;;66.60;20.63;;;12.10;63.40;;;;;;5008165;28;20146;-62
2022/12/15 02:41:33;;;;;;;68.13;20.70;;;12.10;64.00;;;;;;5009920;28;20082;-63
2022/12/15 02:44:01;;;;;;;73.63;21.30;;;12.10;63.90;;;;;;5011092;28;20074;-62
2022/12/15 02:46:43;;;;;;;65.38;21.98;;;12.10;64.30;;;;;;5012016;28;20083;-59
2022/12/15 02:49:38;;;;;;;66.22;20.35;;;12.20;64.50;;;;;;5011103;28;20117;-58
2022/12/15 02:52:15;;;;;;;63.97;22.45;;;12.30;64.80;;;;;;5009964;28;20086;-60
2022/12/15 02:55:22;;;;;;;44.25;10.50;;;12.30;64.60;;;;;;5010432;28;20416;-60
2022/12/15 02:58:07;;;;;;;41.22;10.85;;;12.30;64.40;;;;;;5011330;28;20546;-63
2022/12/15 03:00:39;;;;;;;42.72;9.63;;;12.20;64.60;;;;;;5011227;28;20161;-63
2022/12/15 03:03:06;;;;;;;35.78;9.88;;;12.30;65.30;;;;;;5011278;28;20090;-60
2022/12/15 03:05:33;;;;;;;45.22;10.05;;;12.20;65.30;;;;;;5011099;28;20094;-61
2022/12/15 03:08:00;;;;;;;48.90;10.77;;;12.20;65.50;;;;;;5009705;28;20070;-58
2022/12/15 03:10:27;;;;;;;50.90;10.82;;;12.20;66.10;;;;;;5011010;28;20582;-62
2022/12/15 03:12:53;;;;;;;41.25;10.18;;;12.20;65.90;;;;;;5010890;28;20524;-58
2022/12/15 03:15:20;;;;;;;61.38;11.50;;;12.10;65.60;;;;;;5010757;28;20075;-62
2022/12/15 03:17:47;;;;;;;61.88;13.02;;;12.10;65.90;;;;;;5011062;28;20085;-62
2022/12/15 03:20:13;;;;;;;49.65;13.40;;;12.10;66.50;;;;;;5014676;28;20152;-62
2022/12/15 03:22:39;;;;;;;;;;;12.00;66.80;;;;;;5012737;28;20140;-64
2022/12/15 03:25:06;;;;;;;58.83;13.25;;;12.10;67.30;;;;;;5011301;28;20048;-60
2022/12/15 03:27:32;;;;;;;65.00;13.10;;;12.00;66.40;;;;;;5010607;28;20070;-60
2022/12/15 03:29:58;;;;;;;;;;;11.80;66.50;;;;;;5016158;28;20061;-59
2022/12/15 03:32:25;;;;;;;54.53;12.57;;;11.70;67.00;;;;;;5017041;28;20015;-57
2022/12/15 03:34:51;;;;;;;;;;;11.70;67.40;;;;;;5017003;28;20081;-63
2022/12/15 03:37:17;;;;;;;65.63;15.52;;;11.70;68.00;;;;;;5015451;28;19958;-61
2022/12/15 03:39:43;;;;;;;;;;;11.70;68.30;;;;;;5015500;28;20072;-63
2022/12/15 03:42:09;;;;;;;57.53;16.15;;;11.70;66.90;;;;;;5016375;28;19973;-63
2022/12/15 03:44:35;;;;;;;;;;;11.70;68.40;;;;;;5013710;28;20159;-62
2022/12/15 03:47:02;;;;;;;49.45;16.77;;;11.60;67.50;;;;;;5015682;28;20394;-62
2022/12/15 03:49:28;;;;;;;;;;;11.40;67.00;;;;;;5016359;28;20133;-60
2022/12/15 03:51:54;;;;;;;66.55;18.70;;;11.40;66.90;;;;;;5011427;28;20381;-62
2022/12/15 03:54:20;;;;;;;;;;;11.30;67.70;;;;;;5011251;28;20475;-62
2022/12/15 03:56:47;;;;;;;59.40;16.77;;;11.20;68.40;;;;;;5008954;28;20024;-63
2022/12/15 03:59:13;;;;;;;;;;;11.30;68.60;;;;;;5010001;28;20070;-61
2022/12/15 04:01:46;;;;;;;59.60;17.35;;;11.30;69.00;;;;;;5009225;28;19973;-59
2022/12/15 04:04:13;;;;;;;66.50;20.38;;;11.30;69.30;;;;;;5008325;28;20085;-62
2022/12/15 04:06:39;;;;;;;;;;;11.20;69.40;;;;;;5010019;28;20093;-64
2022/12/15 04:09:05;;;;;;;76.57;27.80;;;11.20;69.50;;;;;;5008089;28;20339;-59
2022/12/15 04:11:31;;;;;;;;;;;11.20;68.90;;;;;;5010874;28;20647;-61
2022/12/15 04:13:57;;;;;;;115.07;41.45;;;11.20;69.60;;;;;;5010378;28;20000;-64
2022/12/15 04:16:23;;;;;;;;;;;11.00;70.20;;;;;;5011061;28;20121;-59
2022/12/15 04:20:07;;;;;;;123.78;48.15;;;11.00;70.30;;;;;;5010395;28;19966;-60
2022/12/15 04:21:36;;;;;;;137.25;48.85;;;11.00;70.50;;;;;;5010278;28;20416;-62
2022/12/15 05:32:39;;;;;;;207.68;68.60;;;10.70;74.30;;;;;;5012357;28;20081;-62
2022/12/15 05:35:05;;;;;;;;;;;10.70;74.80;;;;;;5011765;28;20076;-63
2022/12/15 05:37:31;;;;;;;297.42;68.40;;;10.70;76.10;;;;;;5011886;28;20052;-57
2022/12/15 05:39:57;;;;;;;;;;;10.70;75.20;;;;;;5012928;28;20070;-62
2022/12/15 05:42:23;;;;;;;476.85;77.93;;;10.60;75.30;;;;;;5012194;28;19974;-63
2022/12/15 05:44:49;;;;;;;;;;;10.60;75.20;;;;;;5012629;28;20148;-61
2022/12/15 05:47:16;;;;;;;205.75;62.65;;;10.50;75.40;;;;;;5012338;28;19978;-61
2022/12/15 05:49:42;;;;;;;;;;;10.50;74.60;;;;;;5014184;28;20082;-62
2022/12/15 05:52:08;;;;;;;180.90;59.75;;;10.50;74.20;;;;;;5013282;28;20041;-61
2022/12/15 05:54:34;;;;;;;;;;;10.50;74.00;;;;;;5014076;28;20196;-63
2022/12/15 05:57:01;;;;;;;188.30;57.97;;;10.40;74.20;;;;;;5011449;28;19997;-62
2022/12/15 05:59:27;;;;;;;180.63;56.50;;;10.40;74.80;;;;;;5011377;28;20317;-63
2022/12/15 06:01:53;;;;;;;;;;;10.40;75.20;;;;;;5012558;28;20578;-63
2022/12/15 06:04:20;;;;;;;180.52;53.80;;;10.40;75.60;;;;;;5011947;28;19974;-62
2022/12/15 06:06:46;;;;;;;;;;;10.30;75.50;;;;;;5011351;28;20508;-64
2022/12/15 06:09:12;;;;;;;204.77;57.47;;;10.20;75.60;;;;;;5012433;28;19982;-63
2022/12/15 06:11:38;;;;;;;;;;;10.20;75.50;;;;;;5013794;28;20543;-60
2022/12/15 06:14:04;;;;;;;198.02;58.65;;;10.20;76.00;;;;;;5011981;28;19989;-61
2022/12/15 06:16:31;;;;;;;196.77;54.45;;;10.20;76.50;;;;;;5012040;28;20078;-63
2022/12/15 06:19:00;;;;;;;190.02;55.85;;;10.20;76.40;;;;;;5011860;28;20240;-62
2022/12/15 06:21:34;;;;;;;185.18;56.60;;;10.20;76.60;;;;;;5011626;28;20519;-61
2022/12/15 06:24:01;;;;;;;181.15;55.50;;;10.10;76.00;;;;;;5012355;28;20113;-63
2022/12/15 06:26:30;;;;;;;197.88;54.67;;;10.10;76.30;;;;;;5012083;28;20096;-63
2022/12/15 06:29:01;;;;;;;178.77;55.22;;;10.10;76.00;;;;;;5012558;28;20082;-63
2022/12/15 06:31:28;;;;;;;194.85;57.33;;;10.00;76.60;;;;;;5011356;28;20074;-63
2022/12/15 06:33:55;;;;;;;196.52;56.42;;;10.00;76.40;;;;;;5012406;28;20102;-61
2022/12/15 06:36:27;;;;;;;204.00;57.10;;;10.00;76.70;;;;;;5011718;28;20113;-63
2022/12/15 06:38:57;;;;;;;192.20;53.40;;;10.00;77.20;;;;;;5010849;28;20205;-62
2022/12/15 06:41:23;;;;;;;217.00;57.67;;;9.90;76.50;;;;;;5009489;28;20082;-62
2022/12/15 06:43:49;;;;;;;;;;;9.90;76.30;;;;;;5012128;28;20082;-64
2022/12/15 06:46:16;;;;;;;213.35;56.28;;;9.90;76.50;;;;;;5010602;28;20069;-63
2022/12/15 06:48:44;;;;;;;243.77;56.13;;;9.80;76.90;;;;;;5010302;28;20117;-61
2022/12/15 06:51:12;;;;;;;222.82;57.60;;;9.80;76.90;;;;;;5011110;28;20556;-62
2022/12/15 06:53:40;;;;;;;250.63;62.92;;;9.80;76.50;;;;;;5011980;28;20086;-64
2022/12/15 06:56:20;;;;;;;518.67;303.95;;;9.80;76.00;;;;;;5010368;28;20074;-60
2022/12/15 06:58:51;;;;;;;248.40;63.88;;;9.70;75.80;;;;;;5012601;28;20483;-62
2022/12/15 07:01:19;;;;;;;258.35;62.53;;;9.70;74.40;;;;;;5013249;28;20181;-62
2022/12/15 07:03:45;;;;;;;228.95;61.22;;;9.70;74.70;;;;;;5011381;28;20137;-63
2022/12/15 07:06:15;;;;;;;226.82;58.00;;;9.70;75.20;;;;;;5011430;28;20093;-62
2022/12/15 07:08:42;;;;;;;218.90;61.53;;;9.70;75.30;;;;;;5011335;28;20109;-61
2022/12/15 07:11:12;;;;;;;204.73;57.40;;;9.70;75.60;;;;;;5011688;28;20081;-63
2022/12/15 07:13:38;;;;;;;240.07;60.45;;;9.70;75.00;;;;;;5011378;28;20122;-62
2022/12/15 07:16:06;;;;;;;217.63;60.13;;;9.60;75.30;;;;;;5011473;28;20067;-63
2022/12/15 07:18:33;;;;;;;214.10;60.15;;;9.60;75.40;;;;;;5010980;28;20490;-61
2022/12/15 07:21:05;;;;;;;239.02;59.10;;;9.50;75.00;;;;;;5010055;28;20153;-60
2022/12/15 07:23:32;;;;;;;195.93;56.95;;;9.50;75.40;;;;;;5010426;28;20168;-63
2022/12/15 07:26:02;;;;;;;210.18;58.63;;;9.50;76.20;;;;;;5010470;28;20082;-61
2022/12/15 07:28:28;;;;;;;231.73;58.38;;;9.50;75.20;;;;;;5011569;28;20150;-63
2022/12/15 07:30:54;;;;;;;;;;;9.50;75.60;;;;;;5013087;28;20106;-63
2022/12/15 07:33:20;;;;;;;185.07;58.67;;;9.50;76.70;;;;;;5010991;28;19961;-62
2022/12/15 07:35:53;;;;;;;;;;;9.30;75.50;;;;;;5011760;28;20070;-60
2022/12/15 07:38:19;;;;;;;197.13;56.47;;;9.30;75.60;;;;;;5009722;28;19993;-61
2022/12/15 07:40:46;;;;;;;204.15;57.30;;;9.30;76.20;;;;;;5010147;28;20070;-61
2022/12/15 07:43:12;;;;;;;;;;;9.30;76.10;;;;;;5011164;28;20097;-61
2022/12/15 07:45:38;;;;;;;217.30;60.67;;;9.40;76.80;;;;;;5010446;28;19957;-62
2022/12/15 07:48:04;;;;;;;;;;;9.20;77.60;;;;;;5012297;28;20070;-62
2022/12/15 07:50:31;;;;;;;179.70;56.80;;;9.20;77.50;;;;;;5010379;28;20430;-61
2022/12/15 07:52:57;;;;;;;;;;;9.20;77.50;;;;;;5010785;28;20075;-61
2022/12/15 07:55:24;;;;;;;195.18;59.13;;;9.30;77.20;;;;;;5012076;28;19980;-63
2022/12/15 07:57:50;;;;;;;180.85;56.90;;;9.20;78.00;;;;;;5010453;28;20532;-61
2022/12/15 08:00:18;;;;;;;;;;;9.20;78.40;;;;;;5011741;28;20074;-63
2022/12/15 08:02:44;;;;;;;;;;;9.20;78.00;;;;;;5010336;28;20425;-61
2022/12/15 08:05:10;;;;;;;187.73;63.20;;;9.20;77.80;;;;;;5010396;28;20032;-61
2022/12/15 08:07:36;;;;;;;;;;;9.20;77.70;;;;;;5009819;28;20069;-60
2022/12/15 08:10:03;;;;;;;213.18;62.30;;;9.10;77.80;;;;;;5009114;28;20061;-61
2022/12/15 08:12:30;;;;;;;189.77;60.60;;;9.10;78.30;;;;;;5010487;28;20077;-63
2022/12/15 08:14:56;;;;;;;218.23;63.20;;;9.10;78.50;;;;;;5010563;28;20209;-63
2022/12/15 08:17:22;;;;;;;;;;;9.10;78.90;;;;;;5010723;28;20450;-62
2022/12/15 08:19:49;;;;;;;187.40;62.95;;;9.10;78.80;;;;;;5010541;28;19966;-63
2022/12/15 08:22:14;;;;;;;;;;;9.00;79.60;;;;;;5010873;28;20089;-61
2022/12/15 08:24:42;;;;;;;191.43;62.95;;;9.10;79.60;;;;;;5010778;28;19968;-61
2022/12/15 08:27:08;;;;;;;207.68;66.00;;;9.00;79.20;;;;;;5009560;28;20563;-61
2022/12/15 08:29:34;;;;;;;;;;;8.90;78.70;;;;;;5012055;28;20068;-60
2022/12/15 08:32:01;;;;;;;186.25;64.80;;;8.90;78.50;;;;;;5010296;28;19977;-62
2022/12/15 08:34:27;;;;;;;;;;;9.00;78.40;;;;;;5010283;28;20139;-64
2022/12/15 08:36:54;;;;;;;211.02;67.80;;;9.00;78.80;;;;;;5009565;28;19964;-63
2022/12/15 08:39:20;;;;;;;197.88;65.45;;;8.90;78.70;;;;;;5011462;28;20134;-63
2022/12/15 08:41:46;;;;;;;;;;;9.00;78.50;;;;;;5011169;28;20140;-61
2022/12/15 08:44:15;;;;;;;196.80;66.35;;;9.00;78.50;;;;;;5009917;28;19977;-63
2022/12/15 08:46:41;;;;;;;203.00;66.18;;;9.00;78.40;;;;;;5010220;28;20125;-62
2022/12/15 08:49:09;;;;;;;;;;;9.00;78.40;;;;;;5010455;28;20153;-63
2022/12/15 08:51:35;;;;;;;;;;;8.90;78.50;;;;;;5010483;28;19958;-60
2022/12/15 08:54:01;;;;;;;201.25;65.28;;;8.80;78.30;;;;;;5010214;28;20060;-63
2022/12/15 08:56:28;;;;;;;;;;;8.80;78.90;;;;;;5010192;28;20077;-62
2022/12/15 08:58:57;;;;;;;206.15;70.13;;;8.80;79.40;;;;;;5010722;28;20019;-60
2022/12/15 09:01:25;;;;;;;182.73;67.20;;;8.70;79.30;;;;;;5009639;28;20120;-63
2022/12/15 09:03:53;;;;;;;193.13;65.45;;;8.70;79.70;;;;;;5009987;28;20102;-63
2022/12/15 09:06:26;;;;;;;204.30;67.40;;;8.80;79.90;;;;;;5010337;28;20543;-63
2022/12/15 09:09:02;;;;;;;194.68;67.90;;;8.80;79.70;;;;;;5009613;28;20074;-63
2022/12/15 09:11:29;;;;;;;210.38;65.28;;;8.80;80.10;;;;;;5010247;28;20066;-61
2022/12/15 09:13:56;;;;;;;196.48;67.93;;;8.70;79.50;;;;;;5009735;28;20098;-63
2022/12/15 09:16:23;;;;;;;185.27;66.80;;;8.70;79.60;;;;;;5009593;28;20078;-64
2022/12/15 09:18:52;;;;;;;185.38;68.57;;;8.70;79.40;;;;;;5009687;28;20075;-62
2022/12/15 09:21:24;;;;;;;198.52;69.47;;;8.70;79.10;;;;;;5009622;28;20420;-63
2022/12/15 09:23:53;;;;;;;190.13;66.05;;;8.70;79.30;;;;;;5009931;28;20209;-61
2022/12/15 09:26:21;;;;;;;173.85;63.03;;;8.80;79.40;;;;;;5010993;28;20073;-63
2022/12/15 09:28:49;;;;;;;163.93;60.58;;;8.70;80.20;;;;;;5010221;28;20071;-62
2022/12/15 09:31:21;;;;;;;159.98;57.70;;;8.60;79.50;;;;;;5008741;28;20436;-61
2022/12/15 09:33:49;;;;;;;152.80;56.72;;;8.70;79.80;;;;;;5009900;28;20173;-63
2022/12/15 09:36:16;;;;;;;170.40;58.10;;;8.70;79.10;;;;;;5010654;28;20594;-63
2022/12/15 09:38:42;;;;;;;158.82;53.08;;;8.70;78.80;;;;;;5010413;28;20604;-62
2022/12/15 09:41:15;;;;;;;128.25;50.08;;;8.70;78.40;;;;;;5008406;28;20208;-62
2022/12/15 09:43:57;;;;;;;157.50;53.75;;;8.80;78.00;;;;;;5009973;28;20104;-61
2022/12/15 09:46:45;;;;;;;139.80;54.05;;;8.80;78.00;;;;;;5011028;28;20086;-61
2022/12/15 09:49:21;;;;;;;141.80;51.67;;;8.80;78.60;;;;;;5012367;28;20317;-62
2022/12/15 09:51:59;;;;;;;137.48;50.83;;;8.70;78.70;;;;;;5011996;28;20129;-61
2022/12/15 09:54:30;;;;;;;143.75;50.22;;;8.70;78.70;;;;;;5012738;28;20070;-62
2022/12/15 09:56:59;;;;;;;139.93;49.67;;;8.70;78.30;;;;;;5012987;28;20145;-61
2022/12/15 09:59:45;;;;;;;129.63;49.30;;;8.70;77.80;;;;;;5013277;28;20082;-62
2022/12/15 10:02:50;;;;;;;110.03;45.55;;;8.70;77.80;;;;;;5012320;28;20074;-60
2022/12/15 10:05:38;;;;;;;132.32;46.83;;;8.90;78.20;;;;;;5009136;28;20860;-62
2022/12/15 10:08:05;;;;;;;134.13;48.83;;;9.00;77.50;;;;;;5011944;28;20079;-61
2022/12/15 10:10:38;;;;;;;127.68;51.22;;;9.10;77.00;;;;;;5012971;28;20075;-59
2022/12/15 10:13:13;;;;;;;136.75;52.78;;;9.10;77.20;;;;;;5010837;28;20587;-61
2022/12/15 10:15:56;;;;;;;140.98;51.58;;;9.10;76.90;;;;;;5011606;28;20092;-61
2022/12/15 10:18:27;;;;;;;134.85;56.22;;;9.20;77.00;;;;;;5011545;28;20090;-56
2022/12/15 10:21:00;;;;;;;150.30;55.72;;;9.30;76.80;;;;;;5011476;28;20083;-57
2022/12/15 10:23:26;;;;;;;136.73;54.45;;;9.30;76.50;;;;;;5011295;28;20200;-59
2022/12/15 10:25:58;;;;;;;;;;;9.30;76.50;;;;;;5012997;28;20129;-60
2022/12/15 10:28:47;;;;;;;147.65;53.90;;;9.30;76.50;;;;;;5012185;28;19954;-59
2022/12/15 10:31:33;;;;;;;148.45;53.20;;;9.20;77.60;;;;;;5011883;28;20099;-59
2022/12/15 10:34:09;;;;;;;142.95;53.13;;;9.10;77.50;;;;;;5010924;28;20074;-61
2022/12/15 10:36:36;;;;;;;163.52;54.00;;;9.10;77.80;;;;;;5011529;28;20149;-60
2022/12/15 10:39:02;;;;;;;145.25;55.88;;;9.10;78.20;;;;;;5011755;28;20114;-57
2022/12/15 10:41:31;;;;;;;;;;;9.10;77.50;;;;;;5012273;28;20075;-58
2022/12/15 10:43:57;;;;;;;145.00;53.35;;;8.90;77.90;;;;;;5011861;28;19973;-59
2022/12/15 10:46:24;;;;;;;;;;;8.90;78.10;;;;;;5011994;28;20083;-60
2022/12/15 10:48:52;;;;;;;;;;;8.80;78.30;;;;;;5012549;28;20401;-62
2022/12/15 10:51:30;;;;;;;143.60;53.90;;;8.80;78.50;;;;;;5011962;28;20345;-60
2022/12/15 10:54:11;;;;;;;146.82;53.38;;;8.80;78.70;;;;;;5011665;28;20435;-61
2022/12/15 10:57:26;;;;;;;136.13;52.85;;;8.70;78.20;;;;;;5011189;28;20125;-60
2022/12/15 10:59:54;;;;;;;140.65;54.72;;;8.60;79.10;;;;;;4988979;28;20090;-59
2022/12/15 11:02:22;;;;;;;128.50;52.17;;;8.60;79.40;;;;;;4989914;28;20097;-58
2022/12/15 11:04:58;;;;;;;136.90;49.38;;;8.60;79.70;;;;;;4989436;28;20098;-57
2022/12/15 11:07:33;;;;;;;131.05;48.58;;;8.50;79.60;;;;;;4989429;28;20133;-55
2022/12/15 11:10:07;;;;;;;132.50;50.50;;;8.50;79.10;;;;;;4989564;28;20079;-61
2022/12/15 11:12:51;;;;;;;124.18;47.95;;;8.40;79.30;;;;;;4989161;28;20083;-59
2022/12/15 11:15:23;;;;;;;129.23;48.92;;;8.40;80.30;;;;;;4989462;28;20097;-59
2022/12/15 11:18:05;;;;;;;129.05;52.08;;;8.40;80.10;;;;;;4989622;28;20086;-61
2022/12/15 11:20:40;;;;;;;137.70;52.50;;;8.40;80.40;;;;;;4989238;28;20086;-60
2022/12/15 11:23:40;;;;;;;158.18;57.10;;;8.30;80.40;;;;;;4989470;28;20116;-60
2022/12/15 11:26:20;;;;;;;156.40;58.95;;;8.30;80.30;;;;;;4988197;28;20444;-61
2022/12/15 11:29:13;;;;;;;164.07;58.83;;;8.30;80.30;;;;;;4989443;28;20146;-59
2022/12/15 11:31:46;;;;;;;145.45;57.47;;;8.30;80.30;;;;;;4961204;28;20107;-61
2022/12/15 11:34:19;;;;;;;153.60;58.47;;;8.30;80.10;;;;;;4989072;28;20085;-57
2022/12/15 11:37:07;;;;;;;157.02;52.72;;;8.30;80.30;;;;;;5003085;28;20091;-58
2022/12/15 11:39:46;;;;;;;144.38;56.75;;;8.30;80.40;;;;;;5010084;28;20115;-59
2022/12/15 11:42:23;;;;;;;145.40;54.38;;;8.20;80.80;;;;;;5009625;28;20618;-57
2022/12/15 11:45:16;;;;;;;144.10;54.72;;;8.20;81.00;;;;;;5009379;28;20089;-60
2022/12/15 11:47:51;;;;;;;147.48;56.33;;;8.30;80.40;;;;;;5009003;28;20077;-58
2022/12/15 11:50:42;;;;;;;141.43;55.47;;;8.20;80.10;;;;;;5010703;28;20066;-59
2022/12/15 11:53:43;;;;;;;143.98;55.80;;;8.10;80.10;;;;;;5010384;28;20081;-59
2022/12/15 11:56:23;;;;;;;145.63;57.03;;;8.10;80.50;;;;;;5010511;28;20113;-61
2022/12/15 11:59:18;;;;;;;144.55;56.38;;;8.10;80.70;;;;;;5010058;28;20096;-60
2022/12/15 12:02:12;;;;;;;141.75;61.35;;;8.00;81.30;;;;;;5008846;28;20118;-60
2022/12/15 12:04:48;;;;;;;147.13;58.50;;;8.00;81.30;;;;;;5010520;28;20106;-61
2022/12/15 12:07:35;;;;;;;147.85;59.08;;;8.00;81.50;;;;;;5009219;28;20120;-62
2022/12/15 12:10:01;;;;;;;;;;;8.00;81.90;;;;;;5010638;28;20086;-61
2022/12/15 12:12:54;;;;;;;151.40;59.22;;;7.90;81.90;;;;;;5010348;28;19958;-58
2022/12/15 12:15:33;;;;;;;136.07;59.00;;;8.00;81.80;;;;;;5008585;28;22010;-61
2022/12/15 12:18:16;;;;;;;131.27;54.83;;;7.90;81.40;;;;;;5010283;28;20148;-58
2022/12/15 12:20:52;;;;;;;129.60;55.25;;;7.80;81.40;;;;;;5009224;28;20551;-60
2022/12/15 12:23:38;;;;;;;151.75;53.05;;;7.80;81.00;;;;;;5010176;28;20497;-59
2022/12/15 12:26:18;;;;;;;121.95;46.63;;;7.90;80.90;;;;;;5010317;28;20082;-63
2022/12/15 12:28:57;;;;;;;120.38;46.47;;;7.90;80.30;;;;;;5009342;28;20074;-60
2022/12/15 12:31:56;;;;;;;103.25;45.83;;;7.80;80.00;;;;;;5010109;28;20082;-59
2022/12/15 12:34:46;;;;;;;116.07;46.38;;;7.80;79.80;;;;;;4986972;28;20106;-62
2022/12/15 12:37:38;;;;;;;114.88;47.20;;;7.70;80.40;;;;;;4961266;28;20095;-57
2022/12/15 12:40:42;;;;;;;116.05;48.75;;;7.70;80.70;;;;;;4987995;28;20079;-57
2022/12/15 12:43:15;;;;;;;115.82;46.83;;;7.70;81.00;;;;;;4940168;28;20100;-58
2022/12/15 12:46:22;;;;;;;113.03;46.08;;;7.60;81.00;;;;;;4930234;28;20651;-61
2022/12/15 12:48:56;;;;;;;117.32;43.42;;;7.60;81.20;;;;;;4926244;28;20080;-59
2022/12/15 12:51:39;;;;;;;95.80;42.33;;;7.60;81.10;;;;;;4939238;28;20166;-62
2022/12/15 12:54:35;;;;;;;96.05;42.83;;;7.60;81.30;;;;;;4940647;29;20126;-59
2022/12/15 12:57:27;;;;;;;92.18;40.67;;;7.50;80.50;;;;;;4933068;28;20092;-58
2022/12/15 13:00:06;;;;;;;98.72;41.10;;;7.50;80.00;;;;;;4932619;28;20084;-58
2022/12/15 13:02:39;;;;;;;105.00;43.50;;;7.40;80.10;;;;;;4941144;29;20091;-59
2022/12/15 13:05:26;;;;;;;95.97;42.95;;;7.30;81.20;;;;;;4940437;29;20250;-59
2022/12/15 13:08:04;;;;;;;111.53;46.05;;;7.40;80.90;;;;;;4943793;28;20628;-59
2022/12/15 13:10:33;;;;;;;94.05;43.03;;;7.40;80.70;;;;;;4949049;28;20079;-61
2022/12/15 13:13:28;;;;;;;109.05;42.50;;;7.40;80.70;;;;;;4950116;28;20142;-59
2022/12/15 13:16:23;;;;;;;104.20;44.92;;;7.40;81.10;;;;;;4946428;28;20112;-59
2022/12/15 13:19:08;;;;;;;93.22;45.70;;;7.50;81.00;;;;;;4981008;28;20446;-59
2022/12/15 13:21:43;;;;;;;109.35;47.15;;;7.50;81.40;;;;;;5008899;28;20132;-57
2022/12/15 13:24:40;;;;;;;106.97;44.75;;;7.40;81.60;;;;;;5012321;28;20181;-58
2022/12/15 13:27:10;;;;;;;107.63;45.55;;;7.40;82.10;;;;;;5013499;28;20070;-61
2022/12/15 13:29:53;;;;;;;115.47;48.83;;;7.40;82.50;;;;;;5013097;28;20520;-56
2022/12/15 13:32:40;;;;;;;120.43;46.63;;;7.30;82.40;;;;;;5013309;28;20149;-61
2022/12/15 13:35:12;;;;;;;124.78;48.53;;;7.30;82.60;;;;;;5013235;28;20482;-61
2022/12/15 13:37:46;;;;;;;107.10;47.65;;;7.30;82.50;;;;;;5012528;28;20110;-60
2022/12/15 13:40:25;;;;;;;109.18;47.80;;;7.30;82.60;;;;;;5013119;28;20065;-60
2022/12/15 13:43:28;;;;;;;122.15;48.25;;;7.40;82.80;;;;;;5013216;28;20086;-60
2022/12/15 13:46:01;;;;;;;114.75;48.60;;;7.40;82.30;;;;;;5011683;28;20435;-61
2022/12/15 13:48:36;;;;;;;106.97;49.00;;;7.40;82.50;;;;;;5011912;28;20082;-61
2022/12/15 13:51:12;;;;;;;106.88;48.25;;;7.40;82.50;;;;;;5012696;28;20078;-60
2022/12/15 13:54:00;;;;;;;115.13;49.20;;;7.40;82.80;;;;;;5012388;28;20093;-58
2022/12/15 13:56:54;;;;;;;100.07;48.05;;;7.40;83.80;;;;;;5012645;28;20535;-57
2022/12/15 13:59:40;;;;;;;111.35;48.00;;;7.30;83.80;;;;;;5012050;28;20085;-58
2022/12/15 14:02:29;;;;;;;108.20;48.95;;;7.40;84.20;;;;;;5013282;28;20177;-61
2022/12/15 14:05:22;;;;;;;113.43;50.15;;;7.40;84.40;;;;;;5011978;28;20181;-56
2022/12/15 14:07:54;;;;;;;122.25;50.47;;;7.40;84.40;;;;;;5011528;28;20066;-59
2022/12/15 14:10:35;;;;;;;127.93;51.65;;;7.30;85.10;;;;;;5012024;28;20074;-58
2022/12/15 14:13:23;;;;;;;109.60;51.00;;;7.40;85.10;;;;;;5012579;28;20081;-58
2022/12/15 14:16:16;;;;;;;115.38;53.05;;;7.30;84.90;;;;;;5011121;28;20113;-57
2022/12/15 14:18:43;;;;;;;113.15;50.35;;;7.30;84.20;;;;;;5011089;28;20581;-61
2022/12/15 14:21:29;;;;;;;123.78;51.53;;;7.20;84.10;;;;;;5012472;28;20136;-55
2022/12/15 14:23:59;;;;;;;115.10;49.22;;;7.30;84.70;;;;;;5011874;28;20440;-61
2022/12/15 14:26:29;;;;;;;131.25;53.28;;;7.30;85.10;;;;;;5012562;28;20070;-57
2022/12/15 14:29:01;;;;;;;123.18;51.97;;;7.30;84.80;;;;;;5012036;28;20109;-61
2022/12/15 14:31:29;;;;;;;124.00;53.85;;;7.20;84.90;;;;;;5012380;28;20079;-59
2022/12/15 14:34:38;;;;;;;129.45;52.83;;;7.20;85.40;;;;;;5010738;28;20125;-60
2022/12/15 14:37:09;;;;;;;110.30;51.42;;;7.20;85.90;;;;;;5010803;28;20077;-61
2022/12/15 14:39:47;;;;;;;118.43;50.30;;;7.20;86.30;;;;;;5010316;28;20160;-60
2022/12/15 14:42:22;;;;;;;132.40;51.88;;;7.20;86.40;;;;;;5011187;28;20084;-62
2022/12/15 14:44:49;;;;;;;105.57;50.03;;;7.10;86.40;;;;;;5010590;28;20161;-57
2022/12/15 14:47:23;;;;;;;121.47;50.55;;;7.10;86.40;;;;;;5011270;28;21759;-58
2022/12/15 14:49:50;;;;;;;115.57;49.83;;;7.10;86.20;;;;;;5011631;28;20077;-62
2022/12/15 14:52:28;;;;;;;111.63;50.22;;;7.20;86.00;;;;;;5011758;28;20077;-59
2022/12/15 14:54:57;;;;;;;101.15;50.42;;;7.20;86.00;;;;;;5011688;28;20074;-61
2022/12/15 14:57:51;;;;;;;106.38;46.88;;;7.10;86.00;;;;;;5011831;28;20618;-61
2022/12/15 15:00:30;;;;;;;112.25;47.22;;;7.20;86.40;;;;;;5010277;28;20567;-58
2022/12/15 15:03:14;;;;;;;118.25;47.38;;;7.20;86.60;;;;;;5011741;28;20094;-57
2022/12/15 15:05:43;;;;;;;102.18;47.13;;;7.20;87.00;;;;;;5011080;28;20086;-60
2022/12/15 15:08:41;;;;;;;109.45;46.15;;;7.30;86.90;;;;;;5010429;28;20099;-61
2022/12/15 15:11:23;;;;;;;118.57;45.17;;;7.20;86.70;;;;;;5011326;28;20078;-60
2022/12/15 15:13:54;;;;;;;105.68;44.88;;;7.30;86.70;;;;;;5011028;28;20165;-59
2022/12/15 15:16:21;;;;;;;101.80;43.38;;;7.30;86.20;;;;;;5011156;28;20583;-59
2022/12/15 15:18:54;;;;;;;113.72;45.60;;;7.40;85.90;;;;;;5011222;28;20082;-62
2022/12/15 15:21:33;;;;;;;105.60;43.95;;;7.50;86.20;;;;;;5011180;28;20157;-60
2022/12/15 15:24:01;;;;;;;93.78;41.42;;;7.50;86.50;;;;;;5010184;28;20125;-61
2022/12/15 15:26:28;;;;;;;96.03;40.75;;;7.50;86.20;;;;;;5010323;28;20582;-61
2022/12/15 15:28:55;;;;;;;88.35;40.67;;;7.60;85.70;;;;;;5010987;28;20498;-63
2022/12/15 15:31:24;;;;;;;;;;;7.70;85.40;;;;;;5011719;28;20154;-60
2022/12/15 15:33:51;;;;;;;95.10;38.63;;;7.70;85.10;;;;;;5010844;28;20342;-59
2022/12/15 15:36:18;;;;;;;86.55;34.88;;;7.80;84.80;;;;;;5010771;28;20074;-60